Milos, Greece
Current Conditions -  °F | °C
As of 10:20 AM on Saturday 25 Oct 2014 (Local Time) from LGSR Reporting Station
Scattered Clouds Scattered Clouds  
Wind Chill: 70°   Ceiling: Unl
Heat Index: 70°   Visibility: 6mi
Dew Point: 54°   Wind: 13mph
Humidity: 56%   Direction: 240°WSW
Pressure: 29.83"   Gusts: NA
Location:  36.75°N, 24.43°E
Report Text: LGSR 250720Z 24011KT 9999 SCT025 21/12 Q1010
Loading
Personal Weather Stations






























Interactive Weather Map
Tropical Storm Tracking
New forecast layout! Learn more

10-Day Weather Forecast

Advertisements
Track Severe Weather on mobile